Time;durP1;ratioP1;P1;durP2;ratioP2;P2;SDS_P1;SDS_P2;PMS_P1;PMS_P2;Temp;Humidity;BMP_temperature;BMP_pressure;BME280_temperature;BME280_humidity;BME280_pressure;Samples;Min_cycle;Max_cycle;Signal;HPM_P1;HPM_P2
2021/06/27 00:01:46;;;;;;;55.20;32.38;;;16.00;99.90;;;;;;5081640;28;20028;-78
2021/06/27 00:04:14;;;;;;;49.80;31.52;;;15.90;99.90;;;;;;5081806;28;20044;-79
2021/06/27 00:06:41;;;;;;;51.10;33.53;;;15.90;99.90;;;;;;5076587;28;20414;-79
2021/06/27 00:09:07;;;;;;;51.70;33.53;;;15.90;99.90;;;;;;5084025;28;20047;-78
2021/06/27 00:11:34;;;;;;;52.53;34.22;;;15.90;99.90;;;;;;5082703;28;20040;-78
2021/06/27 00:14:00;;;;;;;54.00;33.03;;;15.90;99.90;;;;;;5083022;28;20093;-77
2021/06/27 00:16:31;;;;;;;47.78;31.80;;;15.90;99.90;;;;;;5065188;28;20067;-78
2021/06/27 00:18:59;;;;;;;49.78;33.78;;;15.90;99.90;;;;;;5085289;28;20036;-78
2021/06/27 00:21:26;;;;;;;50.28;33.47;;;15.90;99.90;;;;;;5065544;28;20048;-73
2021/06/27 00:23:52;;;;;;;48.13;32.75;;;15.80;99.90;;;;;;5076814;28;20131;-72
2021/06/27 00:26:24;;;;;;;47.33;32.38;;;15.80;99.90;;;;;;5063902;28;20048;-73
2021/06/27 00:28:50;;;;;;;45.85;30.75;;;15.80;99.90;;;;;;5082828;28;20115;-73
2021/06/27 00:31:17;;;;;;;48.13;32.10;;;15.80;99.90;;;;;;5083488;28;20044;-73
2021/06/27 00:33:43;;;;;;;46.45;30.52;;;15.80;99.90;;;;;;5083569;28;20040;-78
2021/06/27 00:36:10;;;;;;;44.60;29.38;;;15.70;99.90;;;;;;5062235;28;20437;-79
2021/06/27 00:38:37;;;;;;;45.53;30.88;;;15.70;99.90;;;;;;5082921;28;20042;-77
2021/06/27 00:41:04;;;;;;;45.83;30.73;;;15.70;99.90;;;;;;5080586;28;20529;-77
2021/06/27 00:43:30;;;;;;;43.25;28.02;;;15.70;99.90;;;;;;5081245;28;20117;-78
2021/06/27 00:45:57;;;;;;;47.38;29.90;;;15.70;99.90;;;;;;5083919;28;20036;-79
2021/06/27 00:48:23;;;;;;;47.08;29.60;;;15.70;99.90;;;;;;5066719;28;20094;-79
2021/06/27 00:50:52;;;;;;;43.55;27.70;;;15.70;99.90;;;;;;5074981;28;20028;-77
2021/06/27 00:53:19;;;;;;;43.95;28.58;;;15.70;99.90;;;;;;5079983;28;20042;-77
2021/06/27 00:55:47;;;;;;;43.35;28.48;;;15.60;99.90;;;;;;5084299;28;20487;-77
2021/06/27 00:58:13;;;;;;;43.45;29.75;;;15.60;99.90;;;;;;5081676;28;20039;-77
2021/06/27 01:00:41;;;;;;;41.88;28.75;;;15.60;99.90;;;;;;5065416;28;20449;-78
2021/06/27 01:03:10;;;;;;;41.30;27.38;;;15.60;99.90;;;;;;5081141;28;20040;-77
2021/06/27 01:05:39;;;;;;;42.25;29.27;;;15.50;99.90;;;;;;5082798;28;20036;-77
2021/06/27 01:08:06;;;;;;;43.05;27.52;;;15.50;99.90;;;;;;5078538;28;20666;-77
2021/06/27 01:10:34;;;;;;;42.83;27.67;;;15.50;99.90;;;;;;5083114;28;20033;-76
2021/06/27 01:13:00;;;;;;;42.90;26.30;;;15.50;99.90;;;;;;5079344;28;20051;-76
2021/06/27 01:15:27;;;;;;;44.40;28.23;;;15.50;99.90;;;;;;5084019;28;20036;-80
2021/06/27 01:17:57;;;;;;;43.38;27.00;;;15.40;99.90;;;;;;5079604;28;21080;-79
2021/06/27 01:20:33;;;;;;;47.15;28.90;;;15.40;99.90;;;;;;5079454;28;20051;-78
2021/06/27 01:23:02;;;;;;;44.28;26.63;;;15.50;99.90;;;;;;5080714;28;20054;-77
2021/06/27 01:25:34;;;;;;;43.65;27.70;;;15.40;99.90;;;;;;5083713;28;20119;-78
2021/06/27 01:28:01;;;;;;;42.50;26.73;;;15.40;99.90;;;;;;5075714;28;20067;-77
2021/06/27 01:30:28;;;;;;;44.65;27.63;;;15.40;99.90;;;;;;5065509;28;20097;-78
2021/06/27 01:32:56;;;;;;;44.33;28.58;;;15.40;99.90;;;;;;5077293;28;20090;-76
2021/06/27 01:35:25;;;;;;;42.85;27.75;;;15.40;99.90;;;;;;5084762;28;20485;-77
2021/06/27 01:37:53;;;;;;;42.03;26.30;;;15.30;99.90;;;;;;5088091;28;20032;-77
2021/06/27 01:40:21;;;;;;;44.13;27.25;;;15.30;99.90;;;;;;5085759;28;20040;-73
2021/06/27 01:42:48;;;;;;;44.45;26.17;;;15.30;99.90;;;;;;5085164;28;20032;-77
2021/06/27 01:45:21;;;;;;;42.67;26.92;;;15.30;99.90;;;;;;5079884;28;20104;-77
2021/06/27 01:48:01;;;;;;;44.70;27.70;;;15.30;99.90;;;;;;5086736;28;20114;-78
2021/06/27 01:50:31;;;;;;;44.25;27.65;;;15.20;99.90;;;;;;5086418;28;20040;-77
2021/06/27 01:52:59;;;;;;;43.45;27.50;;;15.20;99.90;;;;;;5087588;28;20047;-79
2021/06/27 01:55:25;;;;;;;47.13;28.45;;;15.20;99.90;;;;;;5085898;28;20040;-78
2021/06/27 01:57:52;;;;;;;48.80;28.23;;;15.10;99.90;;;;;;5086121;28;20113;-77
2021/06/27 02:00:21;;;;;;;47.05;28.52;;;15.10;99.90;;;;;;5083474;28;20495;-77
2021/06/27 02:02:48;;;;;;;50.10;28.80;;;15.10;99.90;;;;;;5088703;28;20118;-77
2021/06/27 02:05:17;;;;;;;46.90;28.90;;;15.00;99.90;;;;;;5058006;28;20052;-77
2021/06/27 02:07:43;;;;;;;50.90;28.27;;;15.00;99.90;;;;;;5086757;28;20040;-78
2021/06/27 02:10:13;;;;;;;49.45;28.10;;;15.00;99.90;;;;;;5090293;28;20584;-78
2021/06/27 02:12:39;;;;;;;46.47;26.55;;;15.00;99.90;;;;;;5074239;28;20040;-78
2021/06/27 02:15:07;;;;;;;47.50;26.58;;;14.90;99.90;;;;;;5062503;28;20040;-78
2021/06/27 02:17:35;;;;;;;50.35;27.83;;;14.90;99.90;;;;;;5086195;28;20158;-78
2021/06/27 02:20:07;;;;;;;47.25;26.35;;;14.90;99.90;;;;;;5081981;28;20134;-78
2021/06/27 02:22:33;;;;;;;46.63;26.40;;;14.90;99.90;;;;;;5085733;28;20031;-78
2021/06/27 02:24:59;;;;;;;45.28;25.77;;;14.90;99.90;;;;;;5083605;28;20036;-79
2021/06/27 02:27:25;;;;;;;48.95;27.55;;;14.90;99.90;;;;;;5094443;28;20110;-78
2021/06/27 02:29:51;;;;;;;50.58;27.00;;;14.80;99.90;;;;;;5084655;28;20054;-77
2021/06/27 02:32:22;;;;;;;48.28;26.75;;;14.80;99.90;;;;;;5084754;28;20040;-78
2021/06/27 02:34:48;;;;;;;53.80;29.02;;;14.80;99.90;;;;;;5094310;28;20040;-78
2021/06/27 02:37:14;;;;;;;52.35;27.80;;;14.70;99.90;;;;;;5087469;28;20061;-78
2021/06/27 02:39:40;;;;;;;53.97;28.95;;;14.70;99.90;;;;;;5074113;28;20040;-78
2021/06/27 02:42:06;;;;;;;56.80;30.27;;;14.70;99.90;;;;;;5080084;28;20472;-77
2021/06/27 02:44:32;;;;;;;55.20;29.58;;;14.70;99.90;;;;;;5077161;28;20057;-77
2021/06/27 02:46:58;;;;;;;52.65;28.48;;;14.70;99.90;;;;;;5085796;28;20479;-77
2021/06/27 02:49:24;;;;;;;60.17;31.38;;;14.60;99.90;;;;;;5065829;28;20040;-77
2021/06/27 02:51:50;;;;;;;59.47;29.75;;;14.60;99.90;;;;;;5080404;28;20036;-78
2021/06/27 02:54:16;;;;;;;58.53;30.00;;;14.60;99.90;;;;;;5083717;28;20128;-78
2021/06/27 02:56:42;;;;;;;59.17;29.77;;;14.60;99.90;;;;;;5084905;28;20040;-77
2021/06/27 02:59:08;;;;;;;55.83;28.90;;;14.60;99.90;;;;;;5081250;28;20044;-76
2021/06/27 03:01:34;;;;;;;60.95;30.63;;;14.60;99.90;;;;;;5066427;28;20028;-78
2021/06/27 03:04:04;;;;;;;60.30;29.70;;;14.50;99.90;;;;;;5082943;28;20066;-79
2021/06/27 03:06:30;;;;;;;61.22;30.17;;;14.50;99.90;;;;;;5066106;28;20441;-78
2021/06/27 03:08:56;;;;;;;52.28;28.02;;;14.60;99.90;;;;;;5043919;28;20036;-77
2021/06/27 03:11:25;;;;;;;55.58;29.30;;;14.50;99.90;;;;;;5081194;28;20052;-78
2021/06/27 03:13:53;;;;;;;55.30;28.00;;;14.50;99.90;;;;;;5081144;28;20047;-79
2021/06/27 03:16:19;;;;;;;60.67;30.08;;;14.50;99.90;;;;;;5081689;28;20036;-77
2021/06/27 03:18:45;;;;;;;57.22;29.25;;;14.50;99.90;;;;;;5064560;28;20047;-72
2021/06/27 03:21:12;;;;;;;63.60;30.27;;;14.50;99.90;;;;;;5061486;28;20036;-72
2021/06/27 03:23:38;;;;;;;61.45;31.45;;;14.50;99.90;;;;;;5051352;28;20040;-71
2021/06/27 03:26:04;;;;;;;57.38;28.98;;;14.50;99.90;;;;;;5077747;28;20043;-72
2021/06/27 03:28:33;;;;;;;57.30;30.10;;;14.40;99.90;;;;;;5082395;28;20048;-72
2021/06/27 03:31:00;;;;;;;61.13;29.50;;;14.40;99.90;;;;;;5067070;28;20032;-72
2021/06/27 03:33:26;;;;;;;61.85;30.05;;;14.40;99.90;;;;;;5080374;28;20040;-72
2021/06/27 03:35:52;;;;;;;66.38;31.85;;;14.40;99.90;;;;;;5081156;28;20397;-72
2021/06/27 03:38:24;;;;;;;62.97;30.60;;;14.40;99.90;;;;;;5083556;28;20039;-72
2021/06/27 03:40:50;;;;;;;61.33;31.85;;;14.40;99.90;;;;;;5066226;28;20044;-76
2021/06/27 03:43:17;;;;;;;72.43;32.38;;;14.30;99.90;;;;;;5065814;28;20056;-77
2021/06/27 03:45:43;;;;;;;68.20;32.35;;;14.40;99.90;;;;;;5081969;28;20051;-77
2021/06/27 03:48:09;;;;;;;65.43;30.55;;;14.30;99.90;;;;;;5065889;28;20445;-77
2021/06/27 03:50:36;;;;;;;73.60;30.98;;;14.40;99.90;;;;;;5083175;28;20036;-77
2021/06/27 03:53:03;;;;;;;71.05;32.00;;;14.30;99.90;;;;;;5079878;28;20051;-76
2021/06/27 03:55:29;;;;;;;67.38;30.88;;;14.40;99.90;;;;;;5084280;28;20050;-78
2021/06/27 03:57:56;;;;;;;68.95;31.80;;;14.30;99.90;;;;;;5064106;28;20033;-78
2021/06/27 04:00:24;;;;;;;67.78;31.92;;;14.40;99.90;;;;;;5065371;28;20052;-76
2021/06/27 04:02:51;;;;;;;68.85;32.80;;;14.40;99.90;;;;;;5080035;28;20055;-78
2021/06/27 04:05:18;;;;;;;65.15;30.88;;;14.40;99.90;;;;;;5083434;28;20051;-78
2021/06/27 04:07:45;;;;;;;74.20;33.30;;;14.40;99.90;;;;;;5080192;28;20040;-77
2021/06/27 04:10:12;;;;;;;78.55;33.75;;;14.50;99.90;;;;;;5082369;28;20623;-77
2021/06/27 04:12:39;;;;;;;88.97;35.75;;;14.50;99.90;;;;;;5084255;28;20036;-78
2021/06/27 04:15:07;;;;;;;90.32;36.83;;;14.60;99.90;;;;;;5085665;28;20438;-77
2021/06/27 04:17:33;;;;;;;88.80;35.17;;;14.70;99.90;;;;;;5079672;28;20028;-76
2021/06/27 04:19:59;;;;;;;104.53;38.08;;;14.70;99.90;;;;;;5082723;28;20032;-77
2021/06/27 04:22:26;;;;;;;104.35;38.10;;;14.80;99.90;;;;;;5084278;28;20060;-77
2021/06/27 04:24:52;;;;;;;143.52;40.63;;;14.90;99.90;;;;;;5063699;28;20047;-76
2021/06/27 04:27:18;;;;;;;146.43;39.95;;;14.90;99.90;;;;;;5058026;28;20146;-78
2021/06/27 04:29:45;;;;;;;127.18;38.53;;;14.90;99.90;;;;;;5047845;28;20036;-77
2021/06/27 04:32:11;;;;;;;141.75;39.97;;;15.00;99.90;;;;;;5075911;28;20044;-78
2021/06/27 04:34:37;;;;;;;140.48;39.35;;;15.10;99.90;;;;;;5082443;28;20036;-77
2021/06/27 04:37:03;;;;;;;140.57;39.55;;;15.10;99.90;;;;;;5063032;28;20044;-76
2021/06/27 04:39:29;;;;;;;114.82;36.50;;;15.10;99.90;;;;;;5092258;28;20068;-76
2021/06/27 04:41:55;;;;;;;121.57;36.78;;;15.20;99.90;;;;;;5045610;28;20067;-77
2021/06/27 04:44:23;;;;;;;121.82;39.75;;;15.20;99.90;;;;;;5082321;28;20055;-78
2021/06/27 04:46:49;;;;;;;113.38;38.60;;;15.30;99.90;;;;;;5081527;28;20123;-72
2021/06/27 04:49:15;;;;;;;107.70;36.95;;;15.30;99.90;;;;;;5084538;28;20490;-72
2021/06/27 04:51:41;;;;;;;111.63;38.10;;;15.40;99.90;;;;;;5080413;28;20032;-72
2021/06/27 04:54:07;;;;;;;109.13;36.75;;;15.40;99.90;;;;;;5093896;28;20125;-71
2021/06/27 04:56:33;;;;;;;105.70;35.80;;;15.40;99.90;;;;;;5092585;28;20085;-71
2021/06/27 04:58:59;;;;;;;92.00;35.00;;;15.50;99.90;;;;;;5080824;28;20441;-72
2021/06/27 05:01:25;;;;;;;91.82;34.78;;;15.50;99.90;;;;;;5064484;28;20052;-72
2021/06/27 05:03:51;;;;;;;93.47;36.17;;;15.50;99.90;;;;;;5065519;28;20032;-73
2021/06/27 05:06:16;;;;;;;82.28;35.63;;;15.60;99.90;;;;;;5062878;28;20046;-72
2021/06/27 05:08:42;;;;;;;74.70;32.88;;;15.60;99.90;;;;;;5064866;28;20584;-72
2021/06/27 05:11:08;;;;;;;69.40;34.10;;;15.60;99.90;;;;;;5084369;28;20101;-73
2021/06/27 05:13:34;;;;;;;66.80;32.17;;;15.60;99.90;;;;;;5080160;28;20040;-73
2021/06/27 05:16:00;;;;;;;69.88;33.72;;;15.70;99.90;;;;;;5065140;28;20040;-72
2021/06/27 05:18:26;;;;;;;67.85;32.55;;;15.80;99.90;;;;;;5086149;28;20105;-77
2021/06/27 05:20:52;;;;;;;69.15;34.08;;;15.80;99.90;;;;;;5085446;28;20036;-77
2021/06/27 05:23:18;;;;;;;68.57;32.47;;;15.80;99.90;;;;;;5066350;28;20048;-78
2021/06/27 05:25:44;;;;;;;62.33;32.30;;;15.90;99.90;;;;;;5085019;28;20080;-77
2021/06/27 05:28:11;;;;;;;61.60;32.42;;;15.90;99.90;;;;;;5084960;28;20306;-78
2021/06/27 05:30:41;;;;;;;59.97;32.13;;;15.90;99.90;;;;;;5072067;28;20035;-77
2021/06/27 05:33:06;;;;;;;58.42;33.53;;;16.00;99.90;;;;;;5066943;28;20552;-76
2021/06/27 05:35:32;;;;;;;55.70;32.13;;;16.00;99.90;;;;;;5087934;28;20039;-77
2021/06/27 05:37:58;;;;;;;57.38;33.22;;;16.00;99.90;;;;;;5085729;28;20939;-76
2021/06/27 05:40:24;;;;;;;56.28;31.92;;;16.10;99.90;;;;;;5086475;28;20039;-77
2021/06/27 05:42:50;;;;;;;56.17;33.42;;;16.20;99.90;;;;;;5084548;28;20040;-76
2021/06/27 05:45:16;;;;;;;53.65;31.75;;;16.20;99.90;;;;;;5085550;28;20036;-78
2021/06/27 05:47:42;;;;;;;53.58;31.65;;;16.30;99.90;;;;;;5064676;28;20032;-77
2021/06/27 05:50:08;;;;;;;53.00;32.10;;;16.40;99.90;;;;;;5079327;28;21660;-77
2021/06/27 05:52:34;;;;;;;53.50;31.08;;;16.40;99.90;;;;;;5085909;28;20036;-77
2021/06/27 05:55:00;;;;;;;52.13;32.65;;;16.40;99.90;;;;;;5067248;28;20050;-77
2021/06/27 05:57:26;;;;;;;48.45;30.30;;;16.50;99.90;;;;;;5084572;28;20441;-77
2021/06/27 05:59:52;;;;;;;46.95;30.00;;;16.50;99.90;;;;;;5065770;28;20052;-76
2021/06/27 06:02:18;;;;;;;47.08;30.55;;;16.60;99.90;;;;;;5084617;28;20047;-77
2021/06/27 06:04:44;;;;;;;46.55;31.25;;;16.60;99.90;;;;;;5065849;28;20036;-77
2021/06/27 06:07:09;;;;;;;45.33;30.15;;;16.60;99.90;;;;;;5083607;28;20047;-76
2021/06/27 06:09:35;;;;;;;44.67;29.70;;;16.60;99.90;;;;;;5083129;28;20094;-77
2021/06/27 06:12:01;;;;;;;46.47;31.30;;;16.70;99.90;;;;;;5084328;28;20069;-77
2021/06/27 06:14:27;;;;;;;43.83;28.92;;;16.70;99.90;;;;;;5085519;28;20036;-77
2021/06/27 06:16:53;;;;;;;43.35;29.05;;;16.80;99.90;;;;;;5078408;28;20642;-78
2021/06/27 06:19:20;;;;;;;44.78;30.58;;;16.80;99.90;;;;;;5085725;28;20040;-77
2021/06/27 06:21:50;;;;;;;45.97;29.75;;;16.90;99.90;;;;;;5083831;28;20071;-77
2021/06/27 06:24:18;;;;;;;40.78;28.98;;;16.90;99.90;;;;;;5067419;28;20089;-77
2021/06/27 06:26:47;;;;;;;39.10;27.13;;;17.00;99.90;;;;;;5083431;28;20036;-77
2021/06/27 06:29:13;;;;;;;36.83;27.45;;;17.20;99.90;;;;;;5082735;28;20513;-77
2021/06/27 06:31:39;;;;;;;38.60;26.20;;;17.30;99.90;;;;;;5082718;28;20378;-76
2021/06/27 06:34:05;;;;;;;34.30;25.58;;;17.30;99.90;;;;;;5084809;28;20050;-77
2021/06/27 06:36:31;;;;;;;34.50;24.98;;;17.50;99.90;;;;;;5083729;28;20570;-77
2021/06/27 06:38:58;;;;;;;34.97;25.50;;;17.50;99.90;;;;;;5081619;28;20495;-78
2021/06/27 06:41:24;;;;;;;35.88;24.90;;;17.60;99.90;;;;;;5083716;28;20043;-76
2021/06/27 06:43:50;;;;;;;36.47;26.40;;;17.70;99.90;;;;;;5083600;28;20032;-78
2021/06/27 06:46:16;;;;;;;35.22;25.77;;;17.90;99.90;;;;;;5083635;28;20047;-78
2021/06/27 06:48:45;;;;;;;37.45;27.55;;;18.00;99.90;;;;;;5085732;28;20036;-76
2021/06/27 06:51:11;;;;;;;36.83;27.65;;;18.10;99.90;;;;;;5062817;28;20403;-76
2021/06/27 06:53:37;;;;;;;36.17;27.17;;;18.20;99.90;;;;;;5052804;28;20036;-77
2021/06/27 06:56:03;;;;;;;36.17;26.17;;;18.20;99.90;;;;;;5068585;28;20051;-77
2021/06/27 06:58:29;;;;;;;37.90;27.80;;;18.30;99.90;;;;;;5085215;28;20077;-77
2021/06/27 07:01:00;;;;;;;36.25;27.70;;;18.30;99.90;;;;;;5066740;28;20055;-77
2021/06/27 07:03:30;;;;;;;34.80;26.90;;;18.50;99.70;;;;;;5083382;28;20438;-77
2021/06/27 07:05:59;;;;;;;32.15;25.70;;;18.60;99.50;;;;;;5082437;28;20044;-77
2021/06/27 07:08:26;;;;;;;34.30;26.98;;;18.70;99.20;;;;;;5086749;28;20036;-77
2021/06/27 07:10:52;;;;;;;33.55;26.67;;;18.80;99.20;;;;;;5084031;28;20486;-78
2021/06/27 07:13:19;;;;;;;30.98;25.27;;;18.90;98.60;;;;;;5058718;28;20036;-77
2021/06/27 07:15:44;;;;;;;29.38;24.10;;;19.00;98.50;;;;;;5083517;28;20040;-76
2021/06/27 07:18:10;;;;;;;30.45;25.05;;;19.10;98.60;;;;;;5081399;28;20050;-77
2021/06/27 07:20:36;;;;;;;26.00;22.33;;;19.20;98.50;;;;;;5081989;28;20059;-78
2021/06/27 07:23:02;;;;;;;27.55;20.98;;;19.30;98.80;;;;;;5085723;28;20406;-76
2021/06/27 07:25:29;;;;;;;27.90;22.52;;;19.50;98.30;;;;;;5079609;28;20044;-76
2021/06/27 07:27:55;;;;;;;26.90;22.13;;;19.60;97.30;;;;;;5080059;28;20062;-80
2021/06/27 07:30:21;;;;;;;27.75;20.90;;;19.70;97.20;;;;;;5080880;28;20537;-75
2021/06/27 07:32:47;;;;;;;26.00;21.67;;;19.70;96.90;;;;;;5076891;28;20126;-80
2021/06/27 07:35:13;;;;;;;23.83;20.17;;;19.80;96.90;;;;;;5079502;28;20044;-78
2021/06/27 07:37:39;;;;;;;24.25;20.08;;;19.90;97.00;;;;;;5083968;28;20040;-77
2021/06/27 07:40:06;;;;;;;24.55;21.23;;;20.00;96.50;;;;;;5077369;28;20044;-77
2021/06/27 07:42:32;;;;;;;25.92;20.13;;;20.10;96.00;;;;;;5061328;28;20040;-78
2021/06/27 07:44:58;;;;;;;24.55;19.13;;;20.20;96.20;;;;;;5078792;28;20048;-77
2021/06/27 07:47:24;;;;;;;24.42;18.50;;;20.20;96.50;;;;;;5079761;28;20455;-77
2021/06/27 07:49:50;;;;;;;22.23;19.58;;;20.40;96.50;;;;;;5063022;28;20036;-73
2021/06/27 07:52:15;;;;;;;19.67;17.23;;;20.40;95.70;;;;;;5079951;28;20063;-73
2021/06/27 07:54:41;;;;;;;22.80;17.33;;;20.40;96.00;;;;;;5063129;28;20406;-73
2021/06/27 07:57:08;;;;;;;19.73;17.08;;;20.50;96.40;;;;;;5080558;28;20517;-74
2021/06/27 07:59:34;;;;;;;22.50;18.10;;;20.70;96.20;;;;;;5084101;28;20070;-74
2021/06/27 08:02:04;;;;;;;20.17;16.85;;;20.70;95.00;;;;;;5079832;28;20051;-73
2021/06/27 08:04:30;;;;;;;20.63;17.55;;;20.70;95.40;;;;;;5063764;28;20040;-73
2021/06/27 08:06:59;;;;;;;22.80;18.10;;;20.80;94.90;;;;;;5082144;28;20036;-74
2021/06/27 08:09:25;;;;;;;19.88;16.75;;;20.90;94.80;;;;;;5081367;28;20066;-73
2021/06/27 08:11:51;;;;;;;19.45;16.70;;;21.00;94.60;;;;;;5082662;28;20061;-73
2021/06/27 08:14:17;;;;;;;20.42;17.10;;;21.00;94.70;;;;;;5077606;28;21304;-73
2021/06/27 08:16:43;;;;;;;19.70;17.63;;;21.10;94.50;;;;;;5081444;28;20044;-72
2021/06/27 08:19:09;;;;;;;19.23;17.23;;;21.20;94.00;;;;;;5077975;28;20036;-73
2021/06/27 08:21:35;;;;;;;20.27;17.17;;;21.20;94.40;;;;;;5082656;28;20039;-73
2021/06/27 08:24:01;;;;;;;19.55;15.77;;;21.20;94.10;;;;;;5078411;28;20040;-73
2021/06/27 08:26:30;;;;;;;19.83;16.95;;;21.20;93.80;;;;;;5078273;28;20691;-76
2021/06/27 08:28:56;;;;;;;19.17;16.95;;;21.20;93.80;;;;;;5077966;28;20040;-75
2021/06/27 08:31:23;;;;;;;20.27;16.45;;;21.30;93.80;;;;;;5065198;28;20036;-76
2021/06/27 08:33:50;;;;;;;19.00;16.70;;;21.30;93.80;;;;;;5077830;28;20082;-73
2021/06/27 08:36:16;;;;;;;17.30;15.50;;;21.40;94.00;;;;;;5082819;28;20063;-72
2021/06/27 08:38:42;;;;;;;19.23;17.23;;;21.50;94.00;;;;;;5048964;28;20499;-73
2021/06/27 08:41:08;;;;;;;20.77;16.92;;;21.60;93.20;;;;;;5080100;28;20056;-73
2021/06/27 08:43:35;;;;;;;18.60;16.60;;;21.60;92.80;;;;;;5083396;28;20043;-72
2021/06/27 08:46:10;;;;;;;22.00;16.33;;;21.70;93.10;;;;;;5086670;28;20051;-73
2021/06/27 08:48:38;;;;;;;21.40;16.63;;;21.70;92.60;;;;;;5081288;28;20036;-73
2021/06/27 08:51:06;;;;;;;19.05;16.13;;;21.70;92.90;;;;;;5086444;28;20064;-73
2021/06/27 08:53:36;;;;;;;17.50;15.70;;;21.80;93.20;;;;;;5085783;28;20090;-72
2021/06/27 08:56:07;;;;;;;18.88;16.88;;;21.90;92.70;;;;;;5087707;28;20522;-73
2021/06/27 08:58:37;;;;;;;19.73;15.70;;;21.90;92.90;;;;;;5066162;28;20044;-73
2021/06/27 09:01:16;;;;;;;17.77;15.73;;;21.90;92.70;;;;;;5086372;28;20703;-73
2021/06/27 09:03:44;;;;;;;18.33;16.37;;;21.90;92.50;;;;;;5083509;28;20063;-75
2021/06/27 09:06:38;;;;;;;20.08;17.90;;;21.90;92.10;;;;;;5084868;28;20578;-73
2021/06/27 09:09:19;;;;;;;20.13;16.45;;;22.00;92.00;;;;;;5074261;28;20081;-76
2021/06/27 09:12:00;;;;;;;18.58;15.88;;;22.00;92.00;;;;;;5070512;28;20108;-75
2021/06/27 09:14:37;;;;;;;19.92;17.45;;;22.10;92.70;;;;;;5080710;28;20114;-76
2021/06/27 09:17:14;;;;;;;17.77;15.55;;;22.20;92.00;;;;;;5079221;28;20048;-75
2021/06/27 09:19:53;;;;;;;18.98;16.13;;;22.30;92.00;;;;;;5063812;28;20074;-78
2021/06/27 09:22:21;;;;;;;18.80;16.80;;;22.40;92.20;;;;;;5084233;28;20048;-79
2021/06/27 09:24:47;;;;;;;17.60;14.70;;;22.30;91.20;;;;;;5085399;28;20043;-77
2021/06/27 09:27:23;;;;;;;17.58;15.27;;;22.30;91.80;;;;;;5084432;28;20046;-76
2021/06/27 09:29:50;;;;;;;17.65;15.48;;;22.30;91.50;;;;;;5083818;28;20067;-77
2021/06/27 09:32:25;;;;;;;18.23;15.65;;;22.40;91.40;;;;;;5084124;28;20032;-77
2021/06/27 09:34:51;;;;;;;17.30;14.18;;;22.40;91.70;;;;;;5083528;28;20044;-77
2021/06/27 09:37:28;;;;;;;17.80;15.27;;;22.40;91.80;;;;;;5082900;28;20200;-76
2021/06/27 09:39:54;;;;;;;16.17;14.30;;;22.30;91.90;;;;;;5083845;28;20423;-75
2021/06/27 09:42:21;;;;;;;19.10;15.77;;;22.30;92.40;;;;;;5085674;28;20036;-76
2021/06/27 09:45:08;;;;;;;18.23;15.73;;;22.30;92.10;;;;;;5064998;28;20040;-78
2021/06/27 09:47:35;;;;;;;17.85;15.85;;;22.30;92.20;;;;;;5087094;28;20546;-77
2021/06/27 09:50:31;;;;;;;17.42;15.60;;;22.30;92.30;;;;;;5084068;28;20123;-76
2021/06/27 09:52:56;;;;;;;17.38;14.45;;;22.40;91.90;;;;;;5078604;28;20059;-77
2021/06/27 09:55:22;;;;;;;17.15;15.05;;;22.30;92.10;;;;;;5065723;28;20036;-75
2021/06/27 09:57:48;;;;;;;16.55;14.73;;;22.30;91.90;;;;;;5083190;28;20032;-76
2021/06/27 10:00:23;;;;;;;19.08;15.52;;;22.30;91.90;;;;;;5084071;28;20048;-75
2021/06/27 10:02:59;;;;;;;16.08;14.45;;;22.30;91.80;;;;;;5081518;28;20107;-76
2021/06/27 10:05:26;;;;;;;16.77;14.90;;;22.30;92.30;;;;;;5091204;28;20032;-76
2021/06/27 10:07:52;;;;;;;17.02;15.13;;;22.40;92.40;;;;;;5083078;28;20491;-76
2021/06/27 10:10:19;;;;;;;17.63;15.65;;;22.40;91.90;;;;;;5081439;28;20040;-78
2021/06/27 10:12:45;;;;;;;16.17;14.20;;;22.40;91.50;;;;;;5066373;28;20036;-77
2021/06/27 10:15:14;;;;;;;16.15;14.43;;;22.50;91.80;;;;;;5079961;28;20046;-82
2021/06/27 10:17:41;;;;;;;16.58;14.90;;;22.50;92.00;;;;;;5081600;28;20148;-82
2021/06/27 10:20:10;;;;;;;15.52;14.02;;;22.60;91.60;;;;;;5079679;28;20404;-82
2021/06/27 10:22:39;;;;;;;16.70;14.93;;;22.80;91.20;;;;;;5080163;28;20036;-81
2021/06/27 10:25:09;;;;;;;15.18;13.38;;;22.90;91.20;;;;;;5050447;28;20044;-80
2021/06/27 10:27:36;;;;;;;13.70;12.30;;;23.00;91.30;;;;;;5058458;28;20054;-83
2021/06/27 10:30:06;;;;;;;13.23;11.93;;;23.20;91.30;;;;;;5060890;28;20495;-76
2021/06/27 10:32:32;;;;;;;15.82;13.80;;;23.40;90.60;;;;;;5077243;28;20051;-76
2021/06/27 10:34:58;;;;;;;14.60;13.10;;;23.50;90.10;;;;;;5081909;28;20040;-84
2021/06/27 10:37:33;;;;;;;14.45;12.95;;;23.60;89.60;;;;;;5078588;28;20032;-84
2021/06/27 10:40:10;;;;;;;15.52;13.90;;;23.60;89.90;;;;;;5074105;28;20032;-82
2021/06/27 10:42:48;;;;;;;16.20;14.52;;;23.70;88.90;;;;;;5071699;28;20364;-81
2021/06/27 10:45:39;;;;;;;15.50;13.50;;;23.60;90.00;;;;;;5082567;28;20514;-82
2021/06/27 10:48:32;;;;;;;15.90;14.25;;;23.70;88.80;;;;;;5093028;28;20040;-82
2021/06/27 10:51:12;;;;;;;15.13;13.52;;;23.70;89.70;;;;;;5079310;28;20059;-81
2021/06/27 10:54:11;;;;;;;15.00;13.52;;;23.80;88.30;;;;;;5077408;28;20040;-82
2021/06/27 10:56:56;;;;;;;14.23;12.82;;;23.80;89.20;;;;;;5078436;28;20051;-81
2021/06/27 10:59:48;;;;;;;14.35;13.05;;;23.80;87.10;;;;;;5075200;28;20052;-80
2021/06/27 11:02:42;;;;;;;14.07;12.00;;;23.70;88.00;;;;;;5077458;28;20413;-82
2021/06/27 11:05:32;;;;;;;14.80;13.30;;;23.50;87.60;;;;;;5079144;28;20036;-84
2021/06/27 11:08:05;;;;;;;15.25;13.65;;;23.40;86.80;;;;;;5079915;28;20255;-82
2021/06/27 11:10:33;;;;;;;14.63;12.35;;;23.40;89.40;;;;;;5081274;28;20475;-82
2021/06/27 11:13:01;;;;;;;15.00;13.50;;;23.50;90.10;;;;;;5079304;28;20047;-84
2021/06/27 11:15:35;;;;;;;14.93;13.50;;;23.80;89.30;;;;;;5075692;28;20039;-83
2021/06/27 11:18:04;;;;;;;16.33;14.63;;;23.90;86.40;;;;;;5054516;28;20127;-85
2021/06/27 11:20:33;;;;;;;17.65;15.32;;;24.10;88.10;;;;;;5074608;28;20040;-82
2021/06/27 11:23:00;;;;;;;14.90;13.40;;;24.30;87.40;;;;;;5073980;28;20028;-82
2021/06/27 11:25:47;;;;;;;15.63;14.13;;;24.50;87.90;;;;;;5060386;28;20398;-84
2021/06/27 11:28:34;;;;;;;16.50;14.80;;;24.70;86.70;;;;;;5075876;28;20079;-82
2021/06/27 11:31:23;;;;;;;15.77;14.18;;;24.90;85.50;;;;;;5079288;28;20046;-83
2021/06/27 11:34:20;;;;;;;14.25;12.85;;;24.90;83.80;;;;;;5078874;28;20040;-83
2021/06/27 11:36:50;;;;;;;15.13;13.50;;;25.00;83.70;;;;;;5074191;28;20059;-82
2021/06/27 11:39:47;;;;;;;13.68;12.32;;;25.10;82.10;;;;;;5073225;28;20031;-83
2021/06/27 11:42:29;;;;;;;13.30;11.93;;;25.20;81.80;;;;;;5076802;28;20546;-81
2021/06/27 11:45:07;;;;;;;14.13;12.07;;;25.30;82.70;;;;;;5080895;28;20092;-83
2021/06/27 11:47:36;;;;;;;12.52;11.25;;;25.20;80.30;;;;;;5074498;28;20122;-83
2021/06/27 11:50:17;;;;;;;14.52;11.45;;;25.10;80.80;;;;;;5077221;28;20657;-83
2021/06/27 11:52:44;;;;;;;13.00;10.40;;;25.00;82.10;;;;;;5080312;28;20061;-81
2021/06/27 11:55:13;;;;;;;12.40;11.20;;;25.00;82.10;;;;;;5075829;28;20056;-81
2021/06/27 11:57:40;;;;;;;13.10;11.83;;;25.00;82.60;;;;;;5060190;28;20043;-83
2021/06/27 12:00:07;;;;;;;13.38;11.60;;;25.00;82.10;;;;;;5078152;28;20046;-81
2021/06/27 12:02:37;;;;;;;12.48;11.23;;;24.90;82.90;;;;;;5093235;28;20043;-80
2021/06/27 12:05:14;;;;;;;;;;;24.90;81.80;;;;;;5082205;28;20052;-81
2021/06/27 12:07:40;;;;;;;12.05;10.10;;;24.90;81.70;;;;;;5077294;28;19923;-81
2021/06/27 12:10:15;;;;;;;10.45;9.35;;;24.80;83.90;;;;;;5078628;28;20139;-82
2021/06/27 12:13:15;;;;;;;16.75;12.82;;;24.90;85.00;;;;;;5081916;28;20537;-81
2021/06/27 12:15:54;;;;;;;13.55;12.15;;;25.00;82.50;;;;;;5041649;28;20478;-81
2021/06/27 12:18:32;;;;;;;13.82;11.65;;;24.80;83.50;;;;;;5077864;28;20048;-83
2021/06/27 12:21:08;;;;;;;13.35;12.02;;;24.70;82.30;;;;;;5080204;28;20510;-82
2021/06/27 12:23:47;;;;;;;12.38;11.07;;;24.70;83.40;;;;;;5080652;28;20454;-83
2021/06/27 12:26:20;;;;;;;11.02;9.93;;;24.90;85.90;;;;;;5081791;28;20064;-81
2021/06/27 12:28:55;;;;;;;13.13;11.43;;;24.90;84.10;;;;;;5044159;28;20123;-82
2021/06/27 12:31:24;;;;;;;12.20;11.00;;;25.00;83.70;;;;;;5078569;28;20036;-84
2021/06/27 12:33:53;;;;;;;11.27;10.18;;;25.30;84.00;;;;;;5077424;28;20032;-82
2021/06/27 12:36:36;;;;;;;12.40;11.10;;;25.50;81.40;;;;;;5080432;28;20120;-82